Time;durP1;ratioP1;P1;durP2;ratioP2;P2;SDS_P1;SDS_P2;PMS_P1;PMS_P2;Temp;Humidity;BMP_temperature;BMP_pressure;BME280_temperature;BME280_humidity;BME280_pressure;Samples;Min_cycle;Max_cycle;Signal;HPM_P1;HPM_P2
2022/12/10 00:01:42;;;;;;;36.68;18.65;;;;;;;7.12;91.33;97982.75;1601560;88;21021;-78
2022/12/10 00:04:11;;;;;;;34.70;17.90;;;;;;;7.13;91.19;97981.42;1623501;88;21010;-78
2022/12/10 00:06:40;;;;;;;34.35;17.02;;;;;;;7.13;91.23;97980.13;1603902;88;21018;-78
2022/12/10 00:09:15;;;;;;;40.35;18.60;;;;;;;7.13;91.26;97974.12;1623813;88;21078;-78
2022/12/10 00:11:42;;;;;;;44.20;18.23;;;;;;;7.18;91.57;97970.93;1601121;88;21075;-79
2022/12/10 00:14:12;;;;;;;36.55;16.00;;;;;;;7.22;91.46;97973.86;1623828;88;21070;-78
2022/12/10 00:16:40;;;;;;;38.98;17.52;;;;;;;7.27;91.40;97973.26;1604815;88;21101;-78
2022/12/10 00:19:07;;;;;;;36.75;17.70;;;;;;;7.27;91.20;97976.30;1605044;88;21075;-78
2022/12/10 00:21:36;;;;;;;33.83;16.15;;;;;;;7.30;91.04;97983.95;1607700;87;21046;-78
2022/12/10 00:24:05;;;;;;;40.17;16.80;;;;;;;7.31;91.06;97985.20;1607241;88;21028;-78
2022/12/10 00:26:36;;;;;;;35.65;17.00;;;;;;;7.30;91.00;97982.23;1609828;88;20978;-78
2022/12/10 00:29:06;;;;;;;36.00;16.67;;;;;;;7.34;90.96;97983.83;1608084;88;20995;-78
2022/12/10 00:31:36;;;;;;;34.48;16.20;;;;;;;7.32;90.56;97978.28;1612486;88;21586;-78
2022/12/10 00:34:07;;;;;;;35.13;17.17;;;;;;;7.28;90.68;97972.38;1608906;88;21070;-78
2022/12/10 00:36:47;;;;;;;36.90;17.37;;;;;;;7.30;90.77;97968.02;1615249;88;21078;-78
2022/12/10 00:39:19;;;;;;;37.03;18.50;;;;;;;7.29;90.71;97970.18;1602459;88;21023;-78
2022/12/10 00:41:47;;;;;;;38.20;19.52;;;;;;;7.27;90.66;97974.55;1607732;88;21524;-78
2022/12/10 00:44:17;;;;;;;40.00;18.37;;;;;;;7.24;90.55;97973.37;1594965;89;21539;-78
2022/12/10 00:46:45;;;;;;;49.08;20.82;;;;;;;7.17;90.86;97971.84;1610466;89;21047;-78
2022/12/10 00:49:13;;;;;;;42.62;20.37;;;;;;;7.14;90.75;97974.50;1590766;89;21011;-77
2022/12/10 00:51:41;;;;;;;45.58;21.73;;;;;;;7.09;90.68;97971.22;1612198;89;21002;-78
2022/12/10 00:54:09;;;;;;;50.65;21.60;;;;;;;7.04;91.12;97971.78;1592622;89;21031;-78
2022/12/10 00:56:37;;;;;;;42.62;20.35;;;;;;;6.96;90.95;97962.53;1611479;89;21019;-78
2022/12/10 00:59:04;;;;;;;49.00;20.02;;;;;;;6.93;91.41;97960.48;1596422;89;21031;-78
2022/12/10 01:01:37;;;;;;;41.75;20.75;;;;;;;6.92;91.85;97961.35;1609407;89;21555;-78
2022/12/10 01:04:12;;;;;;;39.08;19.87;;;;;;;6.93;91.79;97966.94;1590027;89;21983;-78
2022/12/10 01:06:51;;;;;;;40.00;20.10;;;;;;;6.89;91.57;97958.42;1609546;89;21047;-78
2022/12/10 01:09:25;;;;;;;42.78;18.70;;;;;;;6.87;91.37;97961.95;1598529;89;21034;-78
2022/12/10 01:11:56;;;;;;;42.58;19.32;;;;;;;6.83;91.43;97970.22;1611145;89;21051;-78
2022/12/10 01:14:29;;;;;;;40.45;19.37;;;;;;;6.74;91.67;97960.13;1595943;89;21052;-78
2022/12/10 01:17:04;;;;;;;42.17;19.98;;;;;;;6.72;92.22;97955.45;1593372;89;21109;-78
2022/12/10 01:19:33;;;;;;;46.85;20.60;;;;;;;6.71;92.50;97953.78;1598967;89;21510;-77
2022/12/10 01:22:03;;;;;;;43.42;20.17;;;;;;;6.74;92.59;97968.75;1591831;89;21120;-78
2022/12/10 01:24:31;;;;;;;38.28;18.95;;;;;;;6.76;92.53;97966.11;1595072;89;21087;-78
2022/12/10 01:26:59;;;;;;;40.90;18.40;;;;;;;6.74;92.20;97966.59;1591831;89;21050;-78
2022/12/10 01:29:28;;;;;;;45.55;18.65;;;;;;;6.75;91.97;97969.59;1632179;87;21081;-76
2022/12/10 01:31:57;;;;;;;41.18;20.15;;;;;;;6.68;92.04;97971.93;1593783;89;22184;-77
2022/12/10 01:34:26;;;;;;;35.88;18.17;;;;;;;6.69;92.73;97976.22;1574189;89;21031;-78
2022/12/10 01:36:55;;;;;;;37.95;18.55;;;;;;;6.71;93.09;97972.70;1599024;88;21007;-78
2022/12/10 01:39:23;;;;;;;36.98;18.48;;;;;;;6.72;92.90;97961.46;1611867;88;21031;-78
2022/12/10 01:41:55;;;;;;;39.20;18.23;;;;;;;6.73;92.52;97962.33;1597320;89;21606;-78
2022/12/10 01:44:28;;;;;;;46.63;19.05;;;;;;;6.71;93.08;97969.28;1594985;89;21018;-78
2022/12/10 01:47:00;;;;;;;42.90;20.20;;;;;;;6.70;92.71;97968.86;1593017;89;21066;-78
2022/12/10 01:49:38;;;;;;;41.13;19.73;;;;;;;6.68;92.46;97970.64;1600227;89;21051;-78
2022/12/10 01:52:10;;;;;;;38.13;19.40;;;;;;;6.63;92.79;97959.15;1596004;89;21066;-79
2022/12/10 01:54:42;;;;;;;39.58;19.23;;;;;;;6.64;92.88;97953.53;1593118;89;20998;-78
2022/12/10 01:57:15;;;;;;;48.83;21.73;;;;;;;6.65;93.27;97958.66;1599970;87;21039;-78
2022/12/10 01:59:45;;;;;;;49.10;24.73;;;;;;;6.69;93.39;97958.14;1602735;89;20975;-78
2022/12/10 02:02:40;;;;;;;48.85;22.75;;;;;;;6.69;92.99;97966.73;1602871;88;21022;-78
2022/12/10 02:05:42;;;;;;;61.18;25.77;;;;;;;6.70;93.01;97955.95;1605333;89;21066;-78
2022/12/10 02:08:30;;;;;;;55.28;25.10;;;;;;;6.71;93.41;97957.20;1604798;88;21921;-78
2022/12/10 02:11:17;;;;;;;52.50;25.52;;;;;;;6.72;94.13;97958.87;1580070;90;21023;-78
2022/12/10 02:14:15;;;;;;;54.88;25.15;;;;;;;6.73;93.88;97961.04;1587607;90;21038;-77
2022/12/10 02:16:53;;;;;;;52.43;24.63;;;;;;;6.74;94.00;97957.13;1589797;90;21138;-77
2022/12/10 02:19:47;;;;;;;54.58;23.42;;;;;;;6.75;93.76;97956.67;1585248;90;21046;-78
2022/12/10 02:22:18;;;;;;;52.53;23.80;;;;;;;6.74;93.65;97946.80;1583974;90;21472;-77
2022/12/10 02:24:49;;;;;;;44.63;21.52;;;;;;;6.76;93.94;97955.77;1590241;90;21043;-78
2022/12/10 02:27:41;;;;;;;47.67;21.95;;;;;;;6.76;94.05;97947.59;1590148;90;21030;-78
2022/12/10 02:30:09;;;;;;;52.45;23.30;;;;;;;6.79;93.91;97947.11;1575365;90;21050;-75
2022/12/10 02:32:41;;;;;;;45.12;23.75;;;;;;;6.75;94.80;97948.47;1590191;90;21472;-78
2022/12/10 02:35:18;;;;;;;52.95;25.08;;;;;;;6.74;94.56;97947.22;1590252;90;21653;-78
2022/12/10 02:37:54;;;;;;;56.00;24.63;;;;;;;6.72;94.59;97947.25;1583706;90;21496;-78
2022/12/10 02:40:30;;;;;;;58.73;25.90;;;;;;;6.69;94.65;97951.23;1596764;89;21046;-78
2022/12/10 02:42:58;;;;;;;50.23;24.65;;;;;;;6.68;94.69;97953.84;1563067;89;21555;-78
2022/12/10 02:45:28;;;;;;;49.08;24.85;;;;;;;6.69;94.11;97946.52;1599482;88;21078;-77
2022/12/10 02:47:58;;;;;;;57.40;25.02;;;;;;;6.67;95.36;97932.80;1611353;88;21053;-78
2022/12/10 02:50:27;;;;;;;57.27;26.02;;;;;;;6.69;94.83;97943.94;1583304;89;21022;-78
2022/12/10 02:52:55;;;;;;;51.95;25.90;;;;;;;6.68;95.24;97940.48;1598140;88;20979;-78
2022/12/10 02:55:23;;;;;;;48.45;24.07;;;;;;;6.66;95.15;97938.84;1598850;88;21103;-78
2022/12/10 02:58:10;;;;;;;44.53;23.00;;;;;;;6.66;95.29;97933.67;1615531;88;21058;-78
2022/12/10 03:01:05;;;;;;;42.98;21.35;;;;;;;6.63;96.23;97924.28;1604810;88;21082;-78
2022/12/10 03:04:01;;;;;;;46.77;20.85;;;;;;;6.62;95.34;97923.88;1619129;88;21042;-78
2022/12/10 03:06:33;;;;;;;44.27;20.23;;;;;;;6.63;95.58;97922.16;1600979;88;21646;-78
2022/12/10 03:09:09;;;;;;;37.88;19.35;;;;;;;6.63;95.90;97918.28;1619262;87;21049;-77
2022/12/10 03:11:40;;;;;;;41.10;19.15;;;;;;;6.68;95.91;97914.66;1607523;88;21085;-78
2022/12/10 03:14:18;;;;;;;44.63;19.40;;;;;;;6.63;97.00;97902.79;1623750;88;21086;-78
2022/12/10 03:16:56;;;;;;;44.58;19.75;;;;;;;6.65;96.86;97910.05;1598445;88;21451;-77
2022/12/10 03:19:37;;;;;;;38.20;18.92;;;;;;;6.64;96.98;97910.92;1621376;88;21172;-77
2022/12/10 03:22:07;;;;;;;36.17;17.98;;;;;;;6.63;96.75;97908.80;1609997;88;21162;-77
2022/12/10 03:24:36;;;;;;;43.65;19.82;;;;;;;6.61;98.47;97906.70;1623574;88;21046;-78
2022/12/10 03:27:06;;;;;;;42.90;20.60;;;;;;;6.64;98.62;97905.75;1600194;88;21010;-78
2022/12/10 03:29:39;;;;;;;43.78;21.55;;;;;;;6.63;98.85;97909.24;1615701;88;20999;-78
2022/12/10 03:32:06;;;;;;;39.50;19.25;;;;;;;6.61;98.36;97909.28;1601511;87;21038;-78
2022/12/10 03:34:35;;;;;;;43.25;19.82;;;;;;;6.53;98.82;97904.78;1624112;88;20971;-78
2022/12/10 03:37:05;;;;;;;38.25;18.30;;;;;;;6.53;97.29;97903.03;1604816;88;21117;-78
2022/12/10 03:39:34;;;;;;;39.73;19.62;;;;;;;6.48;98.51;97903.59;1587408;89;21093;-78
2022/12/10 03:42:01;;;;;;;38.70;18.77;;;;;;;6.48;98.30;97898.43;1583189;90;21145;-78
2022/12/10 03:44:31;;;;;;;40.15;19.35;;;;;;;6.47;97.94;97903.20;1579863;90;21074;-77
2022/12/10 03:47:00;;;;;;;44.55;20.60;;;;;;;6.46;98.31;97904.53;1592386;90;21038;-78
2022/12/10 03:49:29;;;;;;;42.43;19.57;;;;;;;6.44;98.21;97903.28;1563193;90;21093;-77
2022/12/10 03:51:57;;;;;;;42.60;18.65;;;;;;;6.44;98.30;97904.56;1591224;89;21089;-78
2022/12/10 03:54:24;;;;;;;50.30;20.72;;;;;;;6.43;98.54;97902.89;1588440;90;21070;-79
2022/12/10 03:56:52;;;;;;;39.45;19.02;;;;;;;6.45;99.79;97910.15;1594092;90;21077;-78
2022/12/10 03:59:19;;;;;;;38.42;19.32;;;;;;;6.49;99.03;97909.62;1597418;90;21097;-78
2022/12/10 04:01:47;;;;;;;40.63;19.67;;;;;;;6.51;98.65;97904.81;1595546;90;21089;-78
2022/12/10 04:04:15;;;;;;;44.67;18.32;;;;;;;6.54;99.85;97898.25;1591945;90;21081;-78
2022/12/10 04:06:43;;;;;;;44.03;20.37;;;;;;;6.59;99.23;97892.14;1597414;90;21054;-78
2022/12/10 04:09:13;;;;;;;36.85;16.97;;;;;;;6.63;99.54;97892.45;1585604;90;21082;-78
2022/12/10 04:11:41;;;;;;;38.25;19.75;;;;;;;6.65;100.00;97890.67;1598387;90;21551;-78
2022/12/10 04:16:56;;;;;;;38.63;18.30;;;;;;;6.70;100.00;97888.79;1576525;90;21885;-78
2022/12/10 04:19:24;;;;;;;44.35;19.75;;;;;;;6.70;100.00;97887.50;1590952;90;21049;-78
2022/12/10 04:27:30;;;;;;;32.35;17.65;;;;;;;6.77;99.20;97875.66;1593930;90;21067;-78
2022/12/10 04:29:59;;;;;;;43.83;18.90;;;;;;;6.79;99.56;97872.20;1589437;90;21563;-77
2022/12/10 04:32:28;;;;;;;34.75;17.60;;;;;;;6.81;100.00;97869.96;1595867;90;21987;-78
2022/12/10 04:34:56;;;;;;;35.03;16.62;;;;;;;6.82;99.70;97858.72;1595612;90;21029;-78
2022/12/10 04:37:26;;;;;;;34.60;17.10;;;;;;;6.83;98.90;97864.30;1596623;90;21053;-78
2022/12/10 04:39:54;;;;;;;33.33;15.50;;;;;;;6.81;98.23;97869.96;1587524;89;21643;-78
2022/12/10 04:42:22;;;;;;;32.42;15.75;;;;;;;6.78;98.91;97880.37;1592632;90;21570;-78
2022/12/10 04:44:49;;;;;;;41.18;18.20;;;;;;;6.75;100.00;97888.23;1584494;89;21526;-78
2022/12/10 04:47:17;;;;;;;42.45;20.17;;;;;;;6.73;99.04;97890.01;1590372;90;21581;-78
2022/12/10 04:49:45;;;;;;;37.00;17.92;;;;;;;6.65;100.00;97885.06;1594860;89;21812;-78
2022/12/10 04:52:14;;;;;;;41.50;20.15;;;;;;;6.60;99.98;97884.78;1591722;89;21537;-77
2022/12/10 04:54:44;;;;;;;41.95;20.32;;;;;;;6.54;100.00;97881.47;1595446;90;21126;-77
2022/12/10 04:57:11;;;;;;;38.63;18.77;;;;;;;6.50;100.00;97881.61;1586616;90;21098;-78
2022/12/10 04:59:39;;;;;;;36.88;18.62;;;;;;;6.47;100.00;97873.97;1591882;90;21073;-77
2022/12/10 05:02:06;;;;;;;40.63;18.35;;;;;;;6.46;100.00;97873.09;1591796;90;21046;-78
2022/12/10 05:04:34;;;;;;;37.55;17.52;;;;;;;6.47;100.00;97873.52;1597357;90;21070;-78
2022/12/10 05:07:02;;;;;;;37.30;18.87;;;;;;;6.51;99.62;97876.41;1586716;90;21106;-77
2022/12/10 05:09:29;;;;;;;38.30;18.70;;;;;;;6.50;99.45;97868.70;1593258;90;21090;-77
2022/12/10 05:11:57;;;;;;;39.58;19.20;;;;;;;6.54;99.75;97877.59;1593073;90;21058;-77
2022/12/10 05:14:24;;;;;;;44.08;17.07;;;;;;;6.56;99.53;97882.30;1600270;90;21129;-77
2022/12/10 05:16:52;;;;;;;43.95;19.92;;;;;;;6.56;99.56;97876.27;1590683;90;21069;-78
2022/12/10 05:19:21;;;;;;;40.75;19.17;;;;;;;6.60;99.55;97879.16;1597867;90;21105;-78
2022/12/10 05:24:36;;;;;;;43.08;19.35;;;;;;;6.68;99.70;97875.08;1593970;90;21094;-78
2022/12/10 05:27:05;;;;;;;40.12;19.95;;;;;;;6.71;99.60;97873.70;1593202;89;21057;-78
2022/12/10 05:29:33;;;;;;;39.27;18.20;;;;;;;6.74;99.13;97873.18;1594215;90;21162;-78
2022/12/10 05:32:03;;;;;;;37.50;21.07;;;;;;;6.76;99.36;97873.98;1592504;90;21538;-78
2022/12/10 05:34:30;;;;;;;49.10;22.90;;;;;;;6.81;99.57;97879.00;1580750;90;21158;-78
2022/12/10 05:36:58;;;;;;;41.48;20.23;;;;;;;6.81;99.46;97865.25;1586432;90;21069;-78
2022/12/10 05:39:25;;;;;;;43.90;20.80;;;;;;;6.89;98.91;97880.91;1590220;88;21030;-77
2022/12/10 05:41:53;;;;;;;41.42;21.50;;;;;;;6.88;99.10;97883.08;1593002;89;21142;-78
2022/12/10 05:44:21;;;;;;;39.90;19.15;;;;;;;6.90;99.28;97881.33;1576842;90;21836;-78
2022/12/10 05:46:48;;;;;;;40.35;19.73;;;;;;;6.94;99.32;97885.51;1596329;89;21059;-78
2022/12/10 05:49:16;;;;;;;40.10;19.60;;;;;;;7.00;99.09;97884.45;1590639;89;21130;-77
2022/12/10 05:51:43;;;;;;;40.43;20.43;;;;;;;7.01;99.07;97882.73;1607756;89;22038;-78
2022/12/10 05:54:11;;;;;;;38.95;20.00;;;;;;;7.04;99.07;97883.92;1582283;89;21094;-76
2022/12/10 05:56:38;;;;;;;41.48;22.22;;;;;;;7.06;99.21;97871.80;1610118;89;21078;-78
2022/12/10 05:59:06;;;;;;;46.80;21.02;;;;;;;7.11;99.09;97873.81;1601780;89;21131;-78
2022/12/10 06:01:35;;;;;;;44.75;23.20;;;;;;;7.14;99.05;97868.11;1585012;89;21095;-77
2022/12/10 06:04:05;;;;;;;35.85;18.32;;;;;;;7.17;99.02;97865.41;1601426;89;21077;-78
2022/12/10 06:06:36;;;;;;;38.00;20.90;;;;;;;7.19;98.63;97871.00;1590443;89;21932;-77
2022/12/10 06:09:06;;;;;;;44.77;22.45;;;;;;;7.17;98.65;97865.41;1604023;89;21074;-77
2022/12/10 06:11:34;;;;;;;40.00;20.95;;;;;;;7.24;99.11;97867.80;1585982;89;21011;-78
2022/12/10 06:14:02;;;;;;;42.33;20.17;;;;;;;7.28;99.03;97871.55;1584667;89;21887;-77
2022/12/10 06:16:30;;;;;;;39.18;19.48;;;;;;;7.29;98.68;97869.36;1594133;89;21956;-77
2022/12/10 06:18:58;;;;;;;35.33;18.42;;;;;;;7.29;98.40;97879.70;1608739;89;21022;-77
2022/12/10 06:21:26;;;;;;;33.63;16.42;;;;;;;7.29;98.17;97870.64;1588524;89;21062;-77
2022/12/10 06:23:54;;;;;;;27.27;14.50;;;;;;;7.28;98.50;97862.93;1610112;89;21078;-78
2022/12/10 06:26:25;;;;;;;26.70;12.28;;;;;;;7.30;99.16;97865.89;1596002;89;21046;-78
2022/12/10 06:28:53;;;;;;;32.90;12.98;;;;;;;7.35;100.00;97873.48;1604123;89;21083;-78
2022/12/10 06:31:22;;;;;;;31.33;13.98;;;;;;;7.41;100.00;97875.88;1600832;88;21054;-77
2022/12/10 06:33:52;;;;;;;30.43;13.58;;;;;;;7.48;100.00;97877.81;1609347;89;21587;-78
2022/12/10 06:36:20;;;;;;;30.82;13.55;;;;;;;7.55;100.00;97884.48;1594422;89;21059;-78
2022/12/10 06:38:48;;;;;;;28.05;13.45;;;;;;;7.61;100.00;97891.21;1601363;89;21126;-78
2022/12/10 06:41:18;;;;;;;29.18;15.18;;;;;;;7.65;100.00;97887.17;1599800;88;21027;-78
2022/12/10 06:43:46;;;;;;;31.17;14.20;;;;;;;7.72;100.00;97892.55;1578231;90;21121;-78
2022/12/10 06:46:17;;;;;;;31.93;14.55;;;;;;;7.76;100.00;97886.84;1585242;90;21054;-78
2022/12/10 06:48:45;;;;;;;41.00;17.92;;;;;;;7.80;100.00;97883.25;1594393;90;21030;-78
2022/12/10 06:51:13;;;;;;;34.40;15.65;;;;;;;7.83;100.00;97870.65;1591310;90;21074;-78
2022/12/10 06:53:42;;;;;;;32.42;15.25;;;;;;;7.83;100.00;97879.70;1583867;90;21022;-78
2022/12/10 06:56:16;;;;;;;28.30;14.78;;;;;;;7.84;100.00;97882.25;1585043;90;21073;-78
2022/12/10 06:58:45;;;;;;;33.15;15.68;;;;;;;7.90;100.00;97888.97;1577332;90;21065;-78
2022/12/10 07:01:20;;;;;;;30.20;16.23;;;;;;;7.89;100.00;97883.38;1585939;90;21600;-78
2022/12/10 07:03:50;;;;;;;36.75;18.20;;;;;;;7.91;100.00;97873.36;1594271;90;21022;-78
2022/12/10 07:06:19;;;;;;;35.83;18.70;;;;;;;7.94;100.00;97870.69;1592858;90;21176;-79
2022/12/10 07:08:47;;;;;;;49.35;21.77;;;;;;;8.00;100.00;97869.64;1596095;90;21010;-78
2022/12/10 07:11:19;;;;;;;42.50;22.55;;;;;;;8.04;100.00;97869.92;1598263;90;21022;-78
2022/12/10 07:13:47;;;;;;;41.95;19.95;;;;;;;8.11;100.00;97858.44;1582905;90;21510;-77
2022/12/10 07:16:19;;;;;;;37.00;18.23;;;;;;;8.16;100.00;97871.25;1598306;89;21688;-78
2022/12/10 07:18:47;;;;;;;39.92;18.45;;;;;;;8.21;100.00;97866.73;1591706;90;21006;-78
2022/12/10 07:21:31;;;;;;;42.95;19.73;;;;;;;8.22;100.00;97869.73;1598336;89;21022;-78
2022/12/10 07:24:04;;;;;;;48.38;20.35;;;;;;;8.25;99.87;97863.59;1587120;90;21022;-77
2022/12/10 07:26:35;;;;;;;47.15;21.02;;;;;;;8.26;99.44;97869.19;1597416;89;21042;-78
2022/12/10 07:29:06;;;;;;;62.95;26.23;;;;;;;8.22;99.91;97876.20;1581951;90;21013;-78
2022/12/10 07:31:34;;;;;;;43.92;19.30;;;;;;;8.27;99.77;97876.03;1598275;90;21038;-78
2022/12/10 07:34:02;;;;;;;44.98;19.12;;;;;;;8.27;99.98;97869.11;1569416;90;21042;-78
2022/12/10 07:36:29;;;;;;;109.85;46.53;;;;;;;8.29;99.63;97865.17;1598309;89;21010;-78
2022/12/10 07:38:57;;;;;;;161.82;71.67;;;;;;;8.31;100.00;97869.39;1586778;90;21082;-78
2022/12/10 07:41:26;;;;;;;86.17;43.45;;;;;;;8.35;99.51;97880.48;1598467;89;21050;-75
2022/12/10 07:43:54;;;;;;;53.98;28.77;;;;;;;8.34;100.00;97878.81;1580130;90;21601;-76
2022/12/10 07:46:27;;;;;;;38.70;18.52;;;;;;;8.38;99.94;97876.97;1598561;90;21109;-75
2022/12/10 07:48:55;;;;;;;32.58;16.82;;;;;;;8.38;100.00;97866.16;1594007;90;21586;-77
2022/12/10 07:51:23;;;;;;;30.10;14.87;;;;;;;8.43;100.00;97869.44;1591947;90;21511;-78
2022/12/10 07:53:54;;;;;;;30.40;14.75;;;;;;;8.50;100.00;97872.67;1596654;89;21512;-79
2022/12/10 07:56:24;;;;;;;40.40;16.60;;;;;;;8.57;100.00;97868.94;1579204;89;21062;-76
2022/12/10 07:58:53;;;;;;;33.92;16.42;;;;;;;8.65;100.00;97859.13;1581058;90;21520;-75
2022/12/10 08:01:24;;;;;;;42.83;19.23;;;;;;;8.73;100.00;97867.92;1587948;89;21041;-76
2022/12/10 08:03:56;;;;;;;37.30;19.05;;;;;;;8.81;100.00;97865.88;1565448;90;21003;-75
2022/12/10 08:06:26;;;;;;;34.13;18.27;;;;;;;8.87;99.85;97860.50;1587592;90;21078;-75
2022/12/10 08:08:55;;;;;;;34.20;17.42;;;;;;;8.94;100.00;97853.32;1580974;90;21022;-76
2022/12/10 08:11:23;;;;;;;31.40;16.17;;;;;;;8.98;100.00;97864.42;1590728;90;21364;-78
2022/12/10 08:13:51;;;;;;;27.70;14.90;;;;;;;9.06;100.00;97862.38;1578276;90;21053;-75
2022/12/10 08:16:27;;;;;;;35.73;17.20;;;;;;;9.13;100.00;97865.97;1588429;90;21121;-76
2022/12/10 08:18:58;;;;;;;37.42;17.40;;;;;;;9.20;99.83;97861.38;1598108;90;21091;-78
2022/12/10 08:21:30;;;;;;;38.67;18.85;;;;;;;9.26;99.62;97858.55;1592493;90;21102;-78
2022/12/10 08:23:58;;;;;;;38.70;18.20;;;;;;;9.31;99.55;97855.33;1595809;90;21295;-78
2022/12/10 08:26:32;;;;;;;38.33;19.73;;;;;;;9.39;99.64;97852.86;1593544;90;21048;-78
2022/12/10 08:29:00;;;;;;;35.40;17.95;;;;;;;9.46;99.54;97847.38;1598351;90;21074;-78
2022/12/10 08:31:29;;;;;;;31.87;16.05;;;;;;;9.50;99.28;97850.23;1588485;90;21085;-76
2022/12/10 08:33:57;;;;;;;31.55;15.80;;;;;;;9.54;99.22;97844.01;1591226;90;21034;-76
2022/12/10 08:36:24;;;;;;;35.70;16.62;;;;;;;9.59;99.28;97845.14;1574979;90;21003;-75
2022/12/10 08:38:51;;;;;;;41.05;19.25;;;;;;;9.64;99.19;97840.59;1596784;90;21027;-76
2022/12/10 08:41:21;;;;;;;42.17;19.57;;;;;;;9.70;99.13;97843.38;1601467;88;21113;-76
2022/12/10 08:43:52;;;;;;;51.98;19.82;;;;;;;9.73;98.92;97843.27;1603451;88;21029;-76
2022/12/10 08:46:21;;;;;;;59.20;20.62;;;;;;;9.76;98.75;97840.06;1616677;88;21031;-75
2022/12/10 08:48:49;;;;;;;54.33;22.37;;;;;;;9.78;98.62;97842.61;1603277;88;21010;-78
2022/12/10 08:51:19;;;;;;;46.50;21.52;;;;;;;9.80;98.41;97841.25;1617389;88;21038;-77
2022/12/10 08:53:47;;;;;;;30.95;17.00;;;;;;;9.82;98.27;97836.37;1605231;88;21054;-78
2022/12/10 08:56:15;;;;;;;34.10;16.67;;;;;;;9.78;97.30;97836.12;1595450;88;21098;-78
2022/12/10 08:58:43;;;;;;;34.10;16.90;;;;;;;9.74;97.30;97835.86;1588130;88;21042;-78
2022/12/10 09:01:14;;;;;;;33.05;16.20;;;;;;;9.75;97.49;97830.61;1623733;88;21106;-77
2022/12/10 09:03:42;;;;;;;36.08;17.23;;;;;;;9.76;97.42;97828.84;1605574;88;21065;-75
2022/12/10 09:06:14;;;;;;;33.63;17.35;;;;;;;9.80;97.55;97824.38;1623343;88;21111;-78
2022/12/10 09:08:41;;;;;;;32.80;16.60;;;;;;;9.80;97.43;97810.94;1612505;88;21098;-78
2022/12/10 09:11:13;;;;;;;33.25;15.23;;;;;;;9.86;97.60;97803.35;1616664;87;21073;-76
2022/12/10 09:13:42;;;;;;;29.37;15.03;;;;;;;9.89;97.49;97804.53;1613440;88;21943;-76
2022/12/10 09:16:11;;;;;;;32.75;18.70;;;;;;;9.90;97.20;97803.61;1598040;89;21070;-78
2022/12/10 09:18:39;;;;;;;39.42;18.48;;;;;;;9.91;97.12;97804.01;1611932;88;21019;-78
2022/12/10 09:21:12;;;;;;;36.05;19.25;;;;;;;9.99;97.34;97804.52;1604409;88;21033;-76
2022/12/10 09:23:41;;;;;;;35.00;17.45;;;;;;;10.02;97.28;97792.69;1611728;88;21542;-78
2022/12/10 09:26:12;;;;;;;35.60;17.65;;;;;;;10.02;96.82;97791.39;1608199;88;21085;-78
2022/12/10 09:28:40;;;;;;;36.50;16.85;;;;;;;10.05;96.94;97799.52;1620425;88;20990;-76
2022/12/10 09:31:09;;;;;;;36.25;17.60;;;;;;;10.09;96.96;97795.88;1600513;88;21021;-76
2022/12/10 09:33:38;;;;;;;40.08;18.55;;;;;;;10.06;96.73;97791.64;1614643;88;21546;-77
2022/12/10 09:36:09;;;;;;;34.38;17.87;;;;;;;10.09;96.91;97788.09;1602291;88;21074;-78
2022/12/10 09:38:41;;;;;;;38.78;19.40;;;;;;;10.18;97.51;97783.77;1614580;88;21033;-75
2022/12/10 09:41:35;;;;;;;35.80;17.65;;;;;;;10.23;97.19;97775.33;1600121;88;22006;-75
2022/12/10 09:44:40;;;;;;;38.02;18.30;;;;;;;10.33;97.39;97774.49;1594952;89;21038;-76
2022/12/10 09:47:10;;;;;;;38.20;16.52;;;;;;;10.41;97.13;97775.45;1585434;90;21019;-78
2022/12/10 09:49:52;;;;;;;31.07;16.20;;;;;;;10.50;97.00;97774.58;1585758;89;21073;-76
2022/12/10 09:52:24;;;;;;;36.45;18.20;;;;;;;10.55;96.53;97763.96;1586705;89;21115;-78
2022/12/10 09:55:02;;;;;;;31.02;16.12;;;;;;;10.63;96.74;97763.61;1607100;89;21051;-76
2022/12/10 09:57:41;;;;;;;34.30;17.57;;;;;;;10.70;96.62;97751.56;1588747;89;21054;-75
2022/12/10 10:00:23;;;;;;;31.65;16.85;;;;;;;10.81;96.53;97752.34;1610382;89;21039;-75
2022/12/10 10:02:52;;;;;;;38.58;18.52;;;;;;;10.89;96.93;97742.41;1597097;89;21071;-78
2022/12/10 10:05:24;;;;;;;31.73;16.97;;;;;;;10.99;96.15;97740.68;1588519;89;21682;-75
2022/12/10 10:08:05;;;;;;;37.28;18.80;;;;;;;11.04;95.87;97735.64;1598724;89;21070;-76
2022/12/10 10:10:38;;;;;;;50.38;21.20;;;;;;;11.14;96.25;97732.97;1613707;89;21558;-75
2022/12/10 10:13:26;;;;;;;36.17;19.60;;;;;;;11.24;95.65;97723.39;1604806;88;21535;-75
2022/12/10 10:15:53;;;;;;;43.58;19.30;;;;;;;11.32;95.35;97722.11;1582184;89;21137;-75
2022/12/10 10:18:46;;;;;;;31.33;16.27;;;;;;;11.41;95.54;97722.56;1591280;89;21074;-76
2022/12/10 10:21:25;;;;;;;33.20;16.02;;;;;;;11.52;95.84;97713.77;1570805;90;21039;-76
2022/12/10 10:23:54;;;;;;;30.17;15.40;;;;;;;11.63;95.33;97711.91;1590005;90;21673;-75
2022/12/10 10:26:25;;;;;;;34.03;14.73;;;;;;;11.71;95.13;97707.14;1590084;90;21014;-76
2022/12/10 10:29:04;;;;;;;25.77;13.08;;;;;;;11.77;94.54;97702.08;1589907;90;21039;-76
2022/12/10 10:31:34;;;;;;;27.10;14.70;;;;;;;11.77;93.83;97703.38;1583757;90;21019;-74
2022/12/10 10:34:06;;;;;;;31.37;16.60;;;;;;;11.76;94.07;97702.55;1589334;90;21050;-75
2022/12/10 10:36:36;;;;;;;39.95;19.42;;;;;;;11.82;94.30;97694.41;1590119;90;21146;-76
2022/12/10 10:39:29;;;;;;;37.78;18.70;;;;;;;11.85;94.38;97694.70;1583637;90;21079;-75
2022/12/10 10:41:59;;;;;;;43.50;19.65;;;;;;;11.93;93.86;97689.95;1589960;90;21117;-76
2022/12/10 10:44:32;;;;;;;41.45;19.92;;;;;;;11.99;93.44;97685.72;1583123;89;21581;-79
2022/12/10 10:46:59;;;;;;;40.55;21.20;;;;;;;12.07;93.97;97680.11;1614358;87;21106;-76
2022/12/10 10:49:31;;;;;;;46.40;19.90;;;;;;;12.17;94.10;97680.45;1586754;89;21115;-75
2022/12/10 10:52:06;;;;;;;37.88;19.42;;;;;;;12.26;93.72;97680.80;1593222;89;21031;-75
2022/12/10 10:54:43;;;;;;;41.73;19.25;;;;;;;12.36;92.96;97675.93;1588656;89;21078;-75
2022/12/10 10:57:31;;;;;;;33.35;18.05;;;;;;;12.47;93.10;97664.45;1584123;89;21527;-76
2022/12/10 11:00:22;;;;;;;36.85;17.67;;;;;;;12.60;92.51;97659.86;1596883;88;21515;-75
2022/12/10 11:02:50;;;;;;;39.10;19.75;;;;;;;12.71;92.35;97657.47;1605169;89;21083;-76
2022/12/10 11:05:25;;;;;;;38.28;20.23;;;;;;;12.82;92.23;97647.75;1591865;89;21055;-76
2022/12/10 11:08:03;;;;;;;37.75;18.70;;;;;;;12.88;92.18;97648.70;1614692;88;21027;-76
2022/12/10 11:10:31;;;;;;;38.33;17.55;;;;;;;12.94;91.46;97640.04;1593737;89;21015;-76
2022/12/10 11:13:06;;;;;;;42.05;17.32;;;;;;;13.08;91.71;97651.45;1574287;90;21050;-77
2022/12/10 11:15:40;;;;;;;24.43;13.98;;;;;;;13.09;90.91;97650.06;1598954;89;21110;-74
2022/12/10 11:18:35;;;;;;;27.27;12.30;;;;;;;13.17;91.29;97640.49;1605320;89;21049;-76
2022/12/10 11:21:16;;;;;;;29.87;15.15;;;;;;;13.28;89.55;97647.67;1597082;89;21035;-77
2022/12/10 11:23:49;;;;;;;28.02;15.65;;;;;;;13.22;88.78;97650.17;1609228;89;22054;-77
2022/12/10 11:26:52;;;;;;;31.68;14.75;;;;;;;13.18;88.85;97648.67;1595818;89;21146;-77
2022/12/10 11:29:40;;;;;;;35.48;16.12;;;;;;;13.26;88.50;97646.92;1585473;89;21015;-76
2022/12/10 11:32:33;;;;;;;26.95;12.60;;;;;;;13.35;89.06;97632.51;1549410;91;21060;-76
2022/12/10 11:35:15;;;;;;;18.48;10.85;;;;;;;13.38;89.11;97634.95;1587544;90;21057;-76
2022/12/10 11:38:10;;;;;;;30.15;13.35;;;;;;;13.47;88.74;97645.69;1575995;90;21049;-76
2022/12/10 11:40:52;;;;;;;26.95;14.30;;;;;;;13.46;88.81;97643.98;1584732;90;21052;-76
2022/12/10 11:43:43;;;;;;;32.40;16.12;;;;;;;13.46;88.62;97652.30;1547399;91;21643;-76
2022/12/10 11:46:52;;;;;;;34.92;16.52;;;;;;;13.51;89.02;97642.43;1552390;91;21638;-75
2022/12/10 11:49:37;;;;;;;31.15;14.15;;;;;;;13.44;88.59;97641.94;1557963;91;22621;-76
2022/12/10 11:52:35;;;;;;;25.08;13.40;;;;;;;13.43;86.93;97636.36;1576085;90;22157;-77
2022/12/10 11:55:14;;;;;;;21.70;12.05;;;;;;;13.42;87.14;97628.61;1571374;91;21595;-76
2022/12/10 11:58:23;;;;;;;23.12;10.32;;;;;;;13.41;88.11;97629.09;1593240;89;21581;-77